sensor_id;sensor_type;location;lat;lon;timestamp;P1;durP1;ratioP1;P2;durP2;ratioP2
11522;SDS011;40093;43.224;27.910;2022-09-17T00:01:20;12.63;;;4.27;;
11522;SDS011;40093;43.224;27.910;2022-09-17T00:03:50;13.90;;;4.47;;
11522;SDS011;40093;43.224;27.910;2022-09-17T00:06:19;9.63;;;4.40;;
11522;SDS011;40093;43.224;27.910;2022-09-17T00:08:47;18.63;;;4.57;;
11522;SDS011;40093;43.224;27.910;2022-09-17T00:11:16;9.37;;;3.73;;
11522;SDS011;40093;43.224;27.910;2022-09-17T00:13:45;9.10;;;3.80;;
11522;SDS011;40093;43.224;27.910;2022-09-17T00:16:12;11.80;;;3.67;;
11522;SDS011;40093;43.224;27.910;2022-09-17T00:18:46;9.77;;;3.40;;
11522;SDS011;40093;43.224;27.910;2022-09-17T00:21:15;10.97;;;3.80;;
11522;SDS011;40093;43.224;27.910;2022-09-17T00:23:43;9.17;;;3.67;;
11522;SDS011;40093;43.224;27.910;2022-09-17T00:26:10;11.60;;;3.67;;
11522;SDS011;40093;43.224;27.910;2022-09-17T00:28:37;8.30;;;3.20;;
11522;SDS011;40093;43.224;27.910;2022-09-17T00:31:06;11.67;;;4.37;;
11522;SDS011;40093;43.224;27.910;2022-09-17T00:33:33;9.70;;;3.43;;
11522;SDS011;40093;43.224;27.910;2022-09-17T00:36:01;6.67;;;3.63;;
11522;SDS011;40093;43.224;27.910;2022-09-17T00:38:30;12.50;;;4.10;;
11522;SDS011;40093;43.224;27.910;2022-09-17T00:40:57;10.93;;;4.50;;
11522;SDS011;40093;43.224;27.910;2022-09-17T00:43:38;9.03;;;4.50;;
11522;SDS011;40093;43.224;27.910;2022-09-17T00:46:11;10.53;;;4.83;;
11522;SDS011;40093;43.224;27.910;2022-09-17T00:48:48;14.00;;;5.03;;
11522;SDS011;40093;43.224;27.910;2022-09-17T00:51:17;13.83;;;6.27;;
11522;SDS011;40093;43.224;27.910;2022-09-17T00:53:50;17.10;;;6.27;;
11522;SDS011;40093;43.224;27.910;2022-09-17T00:56:18;11.90;;;6.40;;
11522;SDS011;40093;43.224;27.910;2022-09-17T00:58:48;15.53;;;6.43;;
11522;SDS011;40093;43.224;27.910;2022-09-17T01:01:17;20.27;;;6.73;;
11522;SDS011;40093;43.224;27.910;2022-09-17T01:03:44;14.80;;;7.27;;
11522;SDS011;40093;43.224;27.910;2022-09-17T01:06:13;17.50;;;8.37;;
11522;SDS011;40093;43.224;27.910;2022-09-17T01:08:59;18.73;;;8.63;;
11522;SDS011;40093;43.224;27.910;2022-09-17T01:11:40;15.50;;;9.40;;
11522;SDS011;40093;43.224;27.910;2022-09-17T01:14:20;16.17;;;8.60;;
11522;SDS011;40093;43.224;27.910;2022-09-17T01:16:59;14.77;;;7.80;;
11522;SDS011;40093;43.224;27.910;2022-09-17T01:19:54;17.13;;;7.60;;
11522;SDS011;40093;43.224;27.910;2022-09-17T01:22:48;18.90;;;6.63;;
11522;SDS011;40093;43.224;27.910;2022-09-17T01:25:23;14.97;;;6.77;;
11522;SDS011;40093;43.224;27.910;2022-09-17T01:31:29;16.60;;;5.80;;
11522;SDS011;40093;43.224;27.910;2022-09-17T01:34:03;15.13;;;5.13;;
11522;SDS011;40093;43.224;27.910;2022-09-17T01:36:44;14.97;;;6.73;;
11522;SDS011;40093;43.224;27.910;2022-09-17T01:39:23;15.63;;;5.73;;
11522;SDS011;40093;43.224;27.910;2022-09-17T01:41:59;12.10;;;5.33;;
11522;SDS011;40093;43.224;27.910;2022-09-17T01:44:34;13.77;;;5.70;;
11522;SDS011;40093;43.224;27.910;2022-09-17T01:47:08;12.33;;;5.43;;
11522;SDS011;40093;43.224;27.910;2022-09-17T01:49:41;16.00;;;5.97;;
11522;SDS011;40093;43.224;27.910;2022-09-17T01:52:09;13.63;;;4.87;;
11522;SDS011;40093;43.224;27.910;2022-09-17T01:54:41;13.83;;;5.10;;
11522;SDS011;40093;43.224;27.910;2022-09-17T01:57:12;12.10;;;5.23;;
11522;SDS011;40093;43.224;27.910;2022-09-17T01:59:43;17.40;;;4.73;;
11522;SDS011;40093;43.224;27.910;2022-09-17T02:02:15;9.07;;;4.03;;
11522;SDS011;40093;43.224;27.910;2022-09-17T02:04:50;10.47;;;4.27;;
11522;SDS011;40093;43.224;27.910;2022-09-17T02:07:20;11.23;;;4.10;;
11522;SDS011;40093;43.224;27.910;2022-09-17T02:09:50;11.90;;;4.70;;
11522;SDS011;40093;43.224;27.910;2022-09-17T02:12:26;9.57;;;4.20;;
11522;SDS011;40093;43.224;27.910;2022-09-17T02:14:59;11.30;;;4.40;;
11522;SDS011;40093;43.224;27.910;2022-09-17T02:17:31;11.67;;;4.70;;
11522;SDS011;40093;43.224;27.910;2022-09-17T02:20:03;18.40;;;5.40;;
11522;SDS011;40093;43.224;27.910;2022-09-17T02:22:33;14.47;;;5.10;;
11522;SDS011;40093;43.224;27.910;2022-09-17T02:25:05;14.97;;;5.50;;
11522;SDS011;40093;43.224;27.910;2022-09-17T02:27:37;12.50;;;5.23;;
11522;SDS011;40093;43.224;27.910;2022-09-17T02:30:13;14.60;;;5.77;;
11522;SDS011;40093;43.224;27.910;2022-09-17T02:32:41;17.70;;;5.50;;
11522;SDS011;40093;43.224;27.910;2022-09-17T02:35:09;19.50;;;5.47;;
11522;SDS011;40093;43.224;27.910;2022-09-17T02:37:38;15.23;;;5.80;;
11522;SDS011;40093;43.224;27.910;2022-09-17T02:40:05;12.23;;;5.10;;
11522;SDS011;40093;43.224;27.910;2022-09-17T02:42:35;11.57;;;4.40;;
11522;SDS011;40093;43.224;27.910;2022-09-17T02:45:17;16.30;;;4.80;;
11522;SDS011;40093;43.224;27.910;2022-09-17T02:48:02;17.60;;;5.33;;
11522;SDS011;40093;43.224;27.910;2022-09-17T02:50:46;16.80;;;4.50;;
11522;SDS011;40093;43.224;27.910;2022-09-17T02:53:30;12.10;;;5.20;;
11522;SDS011;40093;43.224;27.910;2022-09-17T02:56:06;13.87;;;4.77;;
11522;SDS011;40093;43.224;27.910;2022-09-17T02:58:42;11.87;;;5.50;;
11522;SDS011;40093;43.224;27.910;2022-09-17T03:01:13;17.13;;;6.30;;
11522;SDS011;40093;43.224;27.910;2022-09-17T03:03:47;21.00;;;11.40;;
11522;SDS011;40093;43.224;27.910;2022-09-17T03:06:15;29.67;;;15.33;;
11522;SDS011;40093;43.224;27.910;2022-09-17T03:08:44;29.17;;;14.07;;
11522;SDS011;40093;43.224;27.910;2022-09-17T03:11:12;30.53;;;13.63;;
11522;SDS011;40093;43.224;27.910;2022-09-17T03:13:39;27.53;;;12.57;;
11522;SDS011;40093;43.224;27.910;2022-09-17T03:16:06;24.63;;;10.63;;
11522;SDS011;40093;43.224;27.910;2022-09-17T03:18:34;18.60;;;7.30;;
11522;SDS011;40093;43.224;27.910;2022-09-17T03:21:02;18.00;;;6.10;;
11522;SDS011;40093;43.224;27.910;2022-09-17T03:23:29;19.23;;;6.07;;
11522;SDS011;40093;43.224;27.910;2022-09-17T03:25:57;16.20;;;7.20;;
11522;SDS011;40093;43.224;27.910;2022-09-17T03:28:24;20.07;;;10.00;;
11522;SDS011;40093;43.224;27.910;2022-09-17T03:30:51;21.97;;;13.23;;
11522;SDS011;40093;43.224;27.910;2022-09-17T03:33:19;32.67;;;14.80;;
11522;SDS011;40093;43.224;27.910;2022-09-17T03:35:46;25.27;;;15.33;;
11522;SDS011;40093;43.224;27.910;2022-09-17T03:38:14;29.10;;;16.13;;
11522;SDS011;40093;43.224;27.910;2022-09-17T03:40:41;27.93;;;16.27;;
11522;SDS011;40093;43.224;27.910;2022-09-17T03:43:08;25.60;;;15.70;;
11522;SDS011;40093;43.224;27.910;2022-09-17T03:45:35;29.50;;;17.10;;
11522;SDS011;40093;43.224;27.910;2022-09-17T03:48:02;32.57;;;17.37;;
11522;SDS011;40093;43.224;27.910;2022-09-17T03:50:29;28.60;;;17.57;;
11522;SDS011;40093;43.224;27.910;2022-09-17T03:52:56;29.77;;;15.50;;
11522;SDS011;40093;43.224;27.910;2022-09-17T03:55:24;30.90;;;16.80;;
11522;SDS011;40093;43.224;27.910;2022-09-17T03:57:51;24.77;;;14.10;;
11522;SDS011;40093;43.224;27.910;2022-09-17T04:00:18;26.30;;;12.23;;
11522;SDS011;40093;43.224;27.910;2022-09-17T04:02:45;24.87;;;9.00;;
11522;SDS011;40093;43.224;27.910;2022-09-17T04:05:12;21.10;;;9.80;;
11522;SDS011;40093;43.224;27.910;2022-09-17T04:07:39;19.33;;;7.87;;
11522;SDS011;40093;43.224;27.910;2022-09-17T04:10:06;13.20;;;6.33;;
11522;SDS011;40093;43.224;27.910;2022-09-17T04:12:35;13.33;;;6.10;;
11522;SDS011;40093;43.224;27.910;2022-09-17T04:15:02;15.10;;;6.87;;
11522;SDS011;40093;43.224;27.910;2022-09-17T04:17:29;15.73;;;6.27;;
11522;SDS011;40093;43.224;27.910;2022-09-17T04:19:56;14.73;;;6.17;;
11522;SDS011;40093;43.224;27.910;2022-09-17T04:22:23;15.87;;;5.30;;
11522;SDS011;40093;43.224;27.910;2022-09-17T04:24:50;9.70;;;4.83;;
11522;SDS011;40093;43.224;27.910;2022-09-17T04:27:17;11.63;;;4.60;;
11522;SDS011;40093;43.224;27.910;2022-09-17T04:29:45;7.70;;;3.93;;
11522;SDS011;40093;43.224;27.910;2022-09-17T04:32:12;10.20;;;6.33;;
11522;SDS011;40093;43.224;27.910;2022-09-17T04:34:39;13.03;;;6.23;;
11522;SDS011;40093;43.224;27.910;2022-09-17T04:37:06;9.73;;;4.80;;
11522;SDS011;40093;43.224;27.910;2022-09-17T04:39:33;13.17;;;5.43;;
11522;SDS011;40093;43.224;27.910;2022-09-17T04:42:00;23.90;;;11.27;;
11522;SDS011;40093;43.224;27.910;2022-09-17T04:44:27;34.03;;;19.20;;
11522;SDS011;40093;43.224;27.910;2022-09-17T04:46:55;32.97;;;16.47;;
11522;SDS011;40093;43.224;27.910;2022-09-17T04:49:22;27.20;;;15.43;;
11522;SDS011;40093;43.224;27.910;2022-09-17T04:51:48;31.87;;;16.27;;
11522;SDS011;40093;43.224;27.910;2022-09-17T04:54:15;25.77;;;15.33;;
11522;SDS011;40093;43.224;27.910;2022-09-17T04:56:42;28.60;;;15.13;;
11522;SDS011;40093;43.224;27.910;2022-09-17T04:59:09;25.63;;;14.03;;
11522;SDS011;40093;43.224;27.910;2022-09-17T05:01:36;21.80;;;13.37;;
11522;SDS011;40093;43.224;27.910;2022-09-17T05:04:04;27.80;;;12.50;;
11522;SDS011;40093;43.224;27.910;2022-09-17T05:06:31;21.33;;;11.93;;
11522;SDS011;40093;43.224;27.910;2022-09-17T05:08:58;28.33;;;12.10;;
11522;SDS011;40093;43.224;27.910;2022-09-17T05:11:26;27.00;;;11.13;;
11522;SDS011;40093;43.224;27.910;2022-09-17T05:13:53;22.10;;;11.00;;
11522;SDS011;40093;43.224;27.910;2022-09-17T05:16:20;18.73;;;10.53;;
11522;SDS011;40093;43.224;27.910;2022-09-17T05:18:47;23.17;;;9.93;;
11522;SDS011;40093;43.224;27.910;2022-09-17T05:21:17;21.43;;;9.97;;
11522;SDS011;40093;43.224;27.910;2022-09-17T05:23:44;21.87;;;10.27;;
11522;SDS011;40093;43.224;27.910;2022-09-17T05:26:12;26.70;;;11.30;;
11522;SDS011;40093;43.224;27.910;2022-09-17T05:28:38;26.10;;;10.90;;
11522;SDS011;40093;43.224;27.910;2022-09-17T05:31:05;26.87;;;10.40;;
11522;SDS011;40093;43.224;27.910;2022-09-17T05:33:32;26.60;;;12.23;;
11522;SDS011;40093;43.224;27.910;2022-09-17T05:35:59;27.27;;;15.17;;
11522;SDS011;40093;43.224;27.910;2022-09-17T05:38:28;24.17;;;15.13;;
11522;SDS011;40093;43.224;27.910;2022-09-17T05:40:55;27.63;;;15.40;;
11522;SDS011;40093;43.224;27.910;2022-09-17T05:43:21;30.43;;;17.00;;
11522;SDS011;40093;43.224;27.910;2022-09-17T05:45:48;31.93;;;15.90;;
11522;SDS011;40093;43.224;27.910;2022-09-17T05:48:17;35.23;;;16.53;;
11522;SDS011;40093;43.224;27.910;2022-09-17T05:50:44;29.13;;;16.53;;
11522;SDS011;40093;43.224;27.910;2022-09-17T05:53:11;32.70;;;17.77;;
11522;SDS011;40093;43.224;27.910;2022-09-17T05:55:40;34.40;;;15.87;;
11522;SDS011;40093;43.224;27.910;2022-09-17T05:58:07;28.37;;;14.17;;
11522;SDS011;40093;43.224;27.910;2022-09-17T06:00:35;29.97;;;12.67;;
11522;SDS011;40093;43.224;27.910;2022-09-17T06:03:02;24.17;;;10.67;;
11522;SDS011;40093;43.224;27.910;2022-09-17T06:05:29;20.30;;;8.50;;
11522;SDS011;40093;43.224;27.910;2022-09-17T06:07:56;23.83;;;7.60;;
11522;SDS011;40093;43.224;27.910;2022-09-17T06:10:23;16.60;;;7.03;;
11522;SDS011;40093;43.224;27.910;2022-09-17T06:12:55;15.77;;;6.37;;
11522;SDS011;40093;43.224;27.910;2022-09-17T06:15:22;18.13;;;6.13;;
11522;SDS011;40093;43.224;27.910;2022-09-17T06:17:49;14.23;;;5.17;;
11522;SDS011;40093;43.224;27.910;2022-09-17T06:20:16;13.20;;;4.00;;
11522;SDS011;40093;43.224;27.910;2022-09-17T06:22:43;14.60;;;4.87;;
11522;SDS011;40093;43.224;27.910;2022-09-17T06:25:10;12.47;;;5.03;;
11522;SDS011;40093;43.224;27.910;2022-09-17T06:27:38;23.37;;;8.60;;
11522;SDS011;40093;43.224;27.910;2022-09-17T06:30:06;20.13;;;7.10;;
11522;SDS011;40093;43.224;27.910;2022-09-17T06:32:33;21.90;;;7.43;;
11522;SDS011;40093;43.224;27.910;2022-09-17T06:35:00;15.77;;;6.37;;
11522;SDS011;40093;43.224;27.910;2022-09-17T06:37:27;14.90;;;6.10;;
11522;SDS011;40093;43.224;27.910;2022-09-17T06:39:55;14.97;;;5.73;;
11522;SDS011;40093;43.224;27.910;2022-09-17T06:42:23;15.60;;;5.90;;
11522;SDS011;40093;43.224;27.910;2022-09-17T06:44:50;18.23;;;6.13;;
11522;SDS011;40093;43.224;27.910;2022-09-17T06:47:18;13.53;;;6.23;;
11522;SDS011;40093;43.224;27.910;2022-09-17T06:49:45;18.60;;;6.30;;
11522;SDS011;40093;43.224;27.910;2022-09-17T06:52:12;13.93;;;6.33;;
11522;SDS011;40093;43.224;27.910;2022-09-17T06:54:39;13.77;;;6.03;;
11522;SDS011;40093;43.224;27.910;2022-09-17T06:57:07;12.57;;;5.83;;
11522;SDS011;40093;43.224;27.910;2022-09-17T06:59:34;13.20;;;5.33;;
11522;SDS011;40093;43.224;27.910;2022-09-17T07:02:01;13.37;;;5.90;;
11522;SDS011;40093;43.224;27.910;2022-09-17T07:04:29;12.77;;;5.20;;
11522;SDS011;40093;43.224;27.910;2022-09-17T07:06:56;11.17;;;5.40;;
11522;SDS011;40093;43.224;27.910;2022-09-17T07:09:23;14.87;;;5.70;;
11522;SDS011;40093;43.224;27.910;2022-09-17T07:11:50;12.30;;;5.20;;
11522;SDS011;40093;43.224;27.910;2022-09-17T07:14:17;13.57;;;5.50;;
11522;SDS011;40093;43.224;27.910;2022-09-17T07:16:45;11.23;;;5.13;;
11522;SDS011;40093;43.224;27.910;2022-09-17T07:19:12;13.53;;;5.07;;
11522;SDS011;40093;43.224;27.910;2022-09-17T07:21:40;10.57;;;5.00;;
11522;SDS011;40093;43.224;27.910;2022-09-17T07:24:07;13.67;;;4.70;;
11522;SDS011;40093;43.224;27.910;2022-09-17T07:26:34;12.13;;;4.70;;
11522;SDS011;40093;43.224;27.910;2022-09-17T07:29:00;10.93;;;4.70;;
11522;SDS011;40093;43.224;27.910;2022-09-17T07:31:27;10.23;;;4.57;;
11522;SDS011;40093;43.224;27.910;2022-09-17T07:33:54;10.43;;;4.53;;
11522;SDS011;40093;43.224;27.910;2022-09-17T07:36:21;10.73;;;4.77;;
11522;SDS011;40093;43.224;27.910;2022-09-17T07:38:49;13.80;;;4.50;;
11522;SDS011;40093;43.224;27.910;2022-09-17T07:41:16;12.17;;;4.47;;
11522;SDS011;40093;43.224;27.910;2022-09-17T07:43:43;14.80;;;4.67;;
11522;SDS011;40093;43.224;27.910;2022-09-17T07:46:12;11.63;;;4.63;;
11522;SDS011;40093;43.224;27.910;2022-09-17T07:48:40;7.60;;;4.20;;
11522;SDS011;40093;43.224;27.910;2022-09-17T07:51:08;11.13;;;4.50;;
11522;SDS011;40093;43.224;27.910;2022-09-17T07:53:40;10.73;;;4.50;;
11522;SDS011;40093;43.224;27.910;2022-09-17T07:56:09;11.73;;;4.70;;
11522;SDS011;40093;43.224;27.910;2022-09-17T07:58:35;10.57;;;4.37;;
11522;SDS011;40093;43.224;27.910;2022-09-17T08:01:03;12.37;;;4.40;;
11522;SDS011;40093;43.224;27.910;2022-09-17T08:03:32;10.57;;;3.73;;
11522;SDS011;40093;43.224;27.910;2022-09-17T08:06:00;7.93;;;4.10;;
11522;SDS011;40093;43.224;27.910;2022-09-17T08:08:29;12.97;;;4.30;;
11522;SDS011;40093;43.224;27.910;2022-09-17T08:10:58;12.03;;;4.50;;
11522;SDS011;40093;43.224;27.910;2022-09-17T08:13:28;14.60;;;4.20;;
11522;SDS011;40093;43.224;27.910;2022-09-17T08:15:58;12.37;;;4.90;;
11522;SDS011;40093;43.224;27.910;2022-09-17T08:18:26;7.80;;;4.43;;
11522;SDS011;40093;43.224;27.910;2022-09-17T08:20:55;10.23;;;4.73;;
11522;SDS011;40093;43.224;27.910;2022-09-17T08:23:23;12.87;;;4.73;;
11522;SDS011;40093;43.224;27.910;2022-09-17T08:25:51;9.37;;;3.83;;
11522;SDS011;40093;43.224;27.910;2022-09-17T08:28:18;8.53;;;4.67;;
11522;SDS011;40093;43.224;27.910;2022-09-17T08:30:47;8.53;;;4.47;;
11522;SDS011;40093;43.224;27.910;2022-09-17T08:33:14;11.93;;;4.53;;
11522;SDS011;40093;43.224;27.910;2022-09-17T08:35:42;9.20;;;4.33;;
11522;SDS011;40093;43.224;27.910;2022-09-17T08:38:09;9.20;;;4.30;;
11522;SDS011;40093;43.224;27.910;2022-09-17T08:40:38;10.43;;;4.10;;
11522;SDS011;40093;43.224;27.910;2022-09-17T08:43:11;9.00;;;4.60;;
11522;SDS011;40093;43.224;27.910;2022-09-17T08:45:43;11.07;;;4.10;;
11522;SDS011;40093;43.224;27.910;2022-09-17T08:48:11;13.70;;;4.87;;
11522;SDS011;40093;43.224;27.910;2022-09-17T08:50:39;8.60;;;4.33;;
11522;SDS011;40093;43.224;27.910;2022-09-17T08:53:22;9.27;;;4.60;;
11522;SDS011;40093;43.224;27.910;2022-09-17T08:55:58;11.20;;;4.73;;
11522;SDS011;40093;43.224;27.910;2022-09-17T08:58:39;10.50;;;4.90;;
11522;SDS011;40093;43.224;27.910;2022-09-17T09:01:21;11.60;;;5.30;;
11522;SDS011;40093;43.224;27.910;2022-09-17T09:04:01;12.53;;;5.50;;
11522;SDS011;40093;43.224;27.910;2022-09-17T09:06:40;11.57;;;4.90;;
11522;SDS011;40093;43.224;27.910;2022-09-17T09:09:12;10.07;;;4.60;;
11522;SDS011;40093;43.224;27.910;2022-09-17T09:11:42;10.13;;;4.57;;
11522;SDS011;40093;43.224;27.910;2022-09-17T09:14:12;9.37;;;4.57;;
11522;SDS011;40093;43.224;27.910;2022-09-17T09:16:45;11.40;;;4.90;;
11522;SDS011;40093;43.224;27.910;2022-09-17T09:19:19;10.83;;;4.30;;
11522;SDS011;40093;43.224;27.910;2022-09-17T09:21:53;9.50;;;4.70;;
11522;SDS011;40093;43.224;27.910;2022-09-17T09:24:29;12.73;;;4.83;;
11522;SDS011;40093;43.224;27.910;2022-09-17T09:27:05;11.70;;;4.80;;
11522;SDS011;40093;43.224;27.910;2022-09-17T09:29:42;10.80;;;4.20;;
11522;SDS011;40093;43.224;27.910;2022-09-17T09:32:20;11.33;;;4.43;;
11522;SDS011;40093;43.224;27.910;2022-09-17T09:35:00;10.93;;;4.53;;
11522;SDS011;40093;43.224;27.910;2022-09-17T09:37:38;9.90;;;4.63;;
11522;SDS011;40093;43.224;27.910;2022-09-17T09:40:14;10.47;;;4.67;;
11522;SDS011;40093;43.224;27.910;2022-09-17T09:42:49;11.07;;;5.00;;
11522;SDS011;40093;43.224;27.910;2022-09-17T09:45:24;9.47;;;4.60;;
11522;SDS011;40093;43.224;27.910;2022-09-17T09:48:03;9.67;;;4.50;;
11522;SDS011;40093;43.224;27.910;2022-09-17T09:50:39;9.60;;;4.77;;
11522;SDS011;40093;43.224;27.910;2022-09-17T09:53:16;10.57;;;4.67;;
11522;SDS011;40093;43.224;27.910;2022-09-17T09:56:00;11.90;;;4.67;;
11522;SDS011;40093;43.224;27.910;2022-09-17T09:58:36;13.77;;;5.27;;
11522;SDS011;40093;43.224;27.910;2022-09-17T10:01:08;9.47;;;4.80;;
11522;SDS011;40093;43.224;27.910;2022-09-17T10:03:39;9.40;;;5.47;;
11522;SDS011;40093;43.224;27.910;2022-09-17T10:06:08;8.63;;;4.83;;
11522;SDS011;40093;43.224;27.910;2022-09-17T10:08:38;10.93;;;5.10;;
11522;SDS011;40093;43.224;27.910;2022-09-17T10:11:15;11.30;;;5.20;;
11522;SDS011;40093;43.224;27.910;2022-09-17T10:13:46;10.90;;;5.30;;
11522;SDS011;40093;43.224;27.910;2022-09-17T10:16:17;10.43;;;5.10;;
11522;SDS011;40093;43.224;27.910;2022-09-17T10:18:47;12.47;;;5.10;;
11522;SDS011;40093;43.224;27.910;2022-09-17T10:21:20;10.60;;;5.43;;
11522;SDS011;40093;43.224;27.910;2022-09-17T10:23:48;11.47;;;5.10;;
11522;SDS011;40093;43.224;27.910;2022-09-17T10:26:20;8.80;;;5.20;;
11522;SDS011;40093;43.224;27.910;2022-09-17T10:28:49;12.00;;;4.77;;
11522;SDS011;40093;43.224;27.910;2022-09-17T10:31:18;11.03;;;5.57;;
11522;SDS011;40093;43.224;27.910;2022-09-17T10:33:50;13.53;;;5.33;;
11522;SDS011;40093;43.224;27.910;2022-09-17T10:42:01;12.73;;;5.03;;
11522;SDS011;40093;43.224;27.910;2022-09-17T10:44:29;11.60;;;5.47;;
11522;SDS011;40093;43.224;27.910;2022-09-17T10:47:00;12.50;;;6.03;;
11522;SDS011;40093;43.224;27.910;2022-09-17T10:49:39;11.73;;;5.00;;
11522;SDS011;40093;43.224;27.910;2022-09-17T10:52:17;13.30;;;5.87;;
11522;SDS011;40093;43.224;27.910;2022-09-17T10:55:14;12.43;;;5.13;;
11522;SDS011;40093;43.224;27.910;2022-09-17T10:58:01;12.17;;;5.50;;
11522;SDS011;40093;43.224;27.910;2022-09-17T11:00:33;14.40;;;6.20;;
11522;SDS011;40093;43.224;27.910;2022-09-17T11:09:19;9.07;;;5.17;;
11522;SDS011;40093;43.224;27.910;2022-09-17T11:11:56;10.73;;;5.13;;
11522;SDS011;40093;43.224;27.910;2022-09-17T11:14:41;14.00;;;6.33;;
11522;SDS011;40093;43.224;27.910;2022-09-17T11:17:24;12.87;;;5.53;;
11522;SDS011;40093;43.224;27.910;2022-09-17T11:20:02;13.13;;;5.53;;
11522;SDS011;40093;43.224;27.910;2022-09-17T11:22:34;9.97;;;5.50;;
11522;SDS011;40093;43.224;27.910;2022-09-17T11:25:18;9.00;;;5.37;;
11522;SDS011;40093;43.224;27.910;2022-09-17T11:27:56;10.83;;;5.87;;
11522;SDS011;40093;43.224;27.910;2022-09-17T11:30:32;11.40;;;5.57;;
11522;SDS011;40093;43.224;27.910;2022-09-17T11:36:09;16.80;;;5.97;;
11522;SDS011;40093;43.224;27.910;2022-09-17T11:38:40;11.73;;;5.67;;
11522;SDS011;40093;43.224;27.910;2022-09-17T11:41:13;12.23;;;6.10;;
11522;SDS011;40093;43.224;27.910;2022-09-17T11:43:45;11.23;;;5.53;;
11522;SDS011;40093;43.224;27.910;2022-09-17T11:46:17;13.23;;;6.13;;
11522;SDS011;40093;43.224;27.910;2022-09-17T11:48:50;10.93;;;5.33;;
11522;SDS011;40093;43.224;27.910;2022-09-17T11:51:22;10.77;;;5.63;;
11522;SDS011;40093;43.224;27.910;2022-09-17T11:53:55;14.57;;;5.97;;
11522;SDS011;40093;43.224;27.910;2022-09-17T11:56:32;10.53;;;5.40;;
11522;SDS011;40093;43.224;27.910;2022-09-17T11:59:02;10.97;;;6.03;;
11522;SDS011;40093;43.224;27.910;2022-09-17T12:01:37;11.10;;;5.70;;
11522;SDS011;40093;43.224;27.910;2022-09-17T12:04:25;9.93;;;5.60;;
11522;SDS011;40093;43.224;27.910;2022-09-17T12:07:00;11.47;;;5.60;;
11522;SDS011;40093;43.224;27.910;2022-09-17T12:09:34;10.40;;;4.90;;
11522;SDS011;40093;43.224;27.910;2022-09-17T12:12:06;12.17;;;5.57;;
11522;SDS011;40093;43.224;27.910;2022-09-17T12:14:42;10.90;;;5.20;;
11522;SDS011;40093;43.224;27.910;2022-09-17T12:17:14;11.07;;;5.33;;
11522;SDS011;40093;43.224;27.910;2022-09-17T12:19:45;10.43;;;5.53;;
11522;SDS011;40093;43.224;27.910;2022-09-17T12:22:17;10.13;;;5.03;;
11522;SDS011;40093;43.224;27.910;2022-09-17T12:24:49;10.43;;;5.30;;
11522;SDS011;40093;43.224;27.910;2022-09-17T12:27:20;12.67;;;5.40;;
11522;SDS011;40093;43.224;27.910;2022-09-17T12:33:11;11.50;;;5.60;;
11522;SDS011;40093;43.224;27.910;2022-09-17T12:39:10;8.90;;;5.43;;
11522;SDS011;40093;43.224;27.910;2022-09-17T12:42:07;11.97;;;5.47;;
11522;SDS011;40093;43.224;27.910;2022-09-17T12:44:52;11.83;;;5.77;;
11522;SDS011;40093;43.224;27.910;2022-09-17T12:47:38;11.03;;;5.87;;
11522;SDS011;40093;43.224;27.910;2022-09-17T12:50:35;10.37;;;5.80;;
11522;SDS011;40093;43.224;27.910;2022-09-17T12:53:13;9.13;;;5.70;;
11522;SDS011;40093;43.224;27.910;2022-09-17T12:55:59;10.77;;;6.00;;
11522;SDS011;40093;43.224;27.910;2022-09-17T12:58:37;12.33;;;6.57;;
11522;SDS011;40093;43.224;27.910;2022-09-17T13:01:22;11.17;;;5.70;;
11522;SDS011;40093;43.224;27.910;2022-09-17T13:03:54;10.23;;;6.10;;
11522;SDS011;40093;43.224;27.910;2022-09-17T13:06:32;12.77;;;6.03;;
11522;SDS011;40093;43.224;27.910;2022-09-17T13:09:42;14.70;;;5.87;;
11522;SDS011;40093;43.224;27.910;2022-09-17T13:12:26;9.90;;;6.17;;
11522;SDS011;40093;43.224;27.910;2022-09-17T13:18:07;11.90;;;6.57;;
11522;SDS011;40093;43.224;27.910;2022-09-17T13:20:53;27.57;;;21.13;;
11522;SDS011;40093;43.224;27.910;2022-09-17T13:23:31;11.33;;;7.27;;
11522;SDS011;40093;43.224;27.910;2022-09-17T13:26:01;12.10;;;7.30;;
11522;SDS011;40093;43.224;27.910;2022-09-17T13:28:37;20.10;;;11.47;;
11522;SDS011;40093;43.224;27.910;2022-09-17T13:31:06;19.70;;;10.40;;
11522;SDS011;40093;43.224;27.910;2022-09-17T13:33:50;12.87;;;7.67;;
11522;SDS011;40093;43.224;27.910;2022-09-17T13:36:35;16.83;;;10.80;;
11522;SDS011;40093;43.224;27.910;2022-09-17T13:39:07;32.03;;;20.00;;
11522;SDS011;40093;43.224;27.910;2022-09-17T13:41:36;8.23;;;6.43;;
11522;SDS011;40093;43.224;27.910;2022-09-17T13:44:06;11.70;;;5.50;;
11522;SDS011;40093;43.224;27.910;2022-09-17T13:46:35;34.90;;;12.00;;
11522;SDS011;40093;43.224;27.910;2022-09-17T13:49:06;27.40;;;11.23;;
11522;SDS011;40093;43.224;27.910;2022-09-17T13:51:51;28.47;;;15.40;;
11522;SDS011;40093;43.224;27.910;2022-09-17T13:54:20;15.17;;;8.50;;
11522;SDS011;40093;43.224;27.910;2022-09-17T13:56:50;22.97;;;12.53;;
11522;SDS011;40093;43.224;27.910;2022-09-17T13:59:31;18.90;;;7.50;;
11522;SDS011;40093;43.224;27.910;2022-09-17T14:02:01;18.50;;;6.93;;
11522;SDS011;40093;43.224;27.910;2022-09-17T14:05:24;18.73;;;6.73;;
11522;SDS011;40093;43.224;27.910;2022-09-17T14:08:11;17.20;;;7.10;;
11522;SDS011;40093;43.224;27.910;2022-09-17T14:11:03;17.40;;;9.03;;
11522;SDS011;40093;43.224;27.910;2022-09-17T14:17:05;16.83;;;8.70;;
11522;SDS011;40093;43.224;27.910;2022-09-17T14:19:33;15.47;;;6.90;;
11522;SDS011;40093;43.224;27.910;2022-09-17T14:22:15;13.27;;;6.13;;
11522;SDS011;40093;43.224;27.910;2022-09-17T14:24:50;15.90;;;8.63;;
11522;SDS011;40093;43.224;27.910;2022-09-17T14:27:40;10.80;;;5.60;;
11522;SDS011;40093;43.224;27.910;2022-09-17T14:30:17;12.67;;;6.30;;
11522;SDS011;40093;43.224;27.910;2022-09-17T14:32:48;15.67;;;8.13;;
11522;SDS011;40093;43.224;27.910;2022-09-17T14:35:20;9.60;;;3.83;;
11522;SDS011;40093;43.224;27.910;2022-09-17T14:37:53;21.57;;;10.27;;
11522;SDS011;40093;43.224;27.910;2022-09-17T14:40:23;8.57;;;4.10;;
11522;SDS011;40093;43.224;27.910;2022-09-17T14:42:53;6.80;;;2.87;;
11522;SDS011;40093;43.224;27.910;2022-09-17T14:45:23;13.80;;;7.30;;
11522;SDS011;40093;43.224;27.910;2022-09-17T14:54:06;8.93;;;4.50;;
11522;SDS011;40093;43.224;27.910;2022-09-17T14:56:54;17.13;;;11.73;;
11522;SDS011;40093;43.224;27.910;2022-09-17T14:59:27;8.30;;;5.33;;
11522;SDS011;40093;43.224;27.910;2022-09-17T15:02:02;8.47;;;4.40;;
11522;SDS011;40093;43.224;27.910;2022-09-17T15:04:29;6.37;;;3.60;;
11522;SDS011;40093;43.224;27.910;2022-09-17T15:07:05;7.70;;;3.50;;
11522;SDS011;40093;43.224;27.910;2022-09-17T15:09:35;7.57;;;3.33;;
11522;SDS011;40093;43.224;27.910;2022-09-17T15:12:02;6.33;;;3.60;;
11522;SDS011;40093;43.224;27.910;2022-09-17T15:14:32;5.30;;;3.03;;
11522;SDS011;40093;43.224;27.910;2022-09-17T15:17:03;4.63;;;2.50;;
11522;SDS011;40093;43.224;27.910;2022-09-17T15:19:32;6.17;;;3.13;;
11522;SDS011;40093;43.224;27.910;2022-09-17T15:22:03;6.17;;;3.30;;
11522;SDS011;40093;43.224;27.910;2022-09-17T15:24:37;4.57;;;2.90;;
11522;SDS011;40093;43.224;27.910;2022-09-17T15:27:10;4.80;;;3.30;;